createdAt,value
2019-05-18T00:00:49.358Z,85.30
2019-05-18T00:02:42.261Z,85.39
2019-05-18T00:03:42.261Z,85.58
2019-05-18T00:05:35.164Z,86.44
2019-05-18T00:06:35.176Z,86.35
2019-05-18T00:08:28.086Z,86.63
2019-05-18T00:09:28.092Z,86.92
2019-05-18T00:11:21.005Z,86.54
2019-05-18T00:12:21.023Z,86.06
2019-05-18T00:14:13.917Z,86.82
2019-05-18T00:15:13.928Z,86.63
2019-05-18T00:17:12.851Z,86.73
2019-05-18T00:18:07.336Z,86.06
2019-05-18T00:20:00.242Z,86.63
2019-05-18T00:21:00.251Z,86.73
2019-05-18T00:22:53.165Z,86.25
2019-05-18T00:23:53.201Z,86.25
2019-05-18T00:25:46.077Z,86.16
2019-05-18T00:26:46.082Z,86.16
2019-05-18T00:28:38.990Z,86.25
2019-05-18T00:29:39.000Z,86.06
2019-05-18T00:31:31.919Z,86.63
2019-05-18T00:32:31.915Z,86.35
2019-05-18T00:34:24.821Z,86.54
2019-05-18T00:35:24.832Z,86.54
2019-05-18T00:37:18.785Z,86.30
2019-05-18T00:38:18.740Z,86.63
2019-05-18T00:40:11.655Z,87.16
2019-05-18T00:41:11.656Z,86.88
2019-05-18T00:43:04.567Z,86.88
2019-05-18T00:44:04.575Z,86.98
2019-05-18T00:45:57.480Z,87.26
2019-05-18T00:46:57.482Z,87.16
2019-05-18T00:48:50.399Z,87.26
2019-05-18T00:49:50.404Z,86.78
2019-05-18T00:51:43.319Z,86.59
2019-05-18T00:52:43.311Z,86.78
2019-05-18T00:54:36.220Z,86.88
2019-05-18T00:55:36.228Z,87.26
2019-05-18T00:57:29.146Z,87.54
2019-05-18T00:58:29.152Z,87.54
2019-05-18T01:00:22.121Z,87.35
2019-05-18T01:01:22.079Z,87.45
2019-05-18T01:03:15.567Z,87.26
2019-05-18T01:04:15.495Z,87.26
2019-05-18T01:06:08.447Z,87.26
2019-05-18T01:07:08.406Z,87.35
2019-05-18T01:09:01.333Z,87.45
2019-05-18T01:10:01.321Z,87.35
2019-05-18T01:11:54.230Z,87.26
2019-05-18T01:12:54.233Z,87.35
2019-05-18T01:14:47.143Z,87.16
2019-05-18T01:15:47.150Z,87.64
2019-05-18T01:17:40.062Z,87.64
2019-05-18T01:18:40.067Z,88.02
2019-05-18T01:20:33.474Z,88.12
2019-05-18T01:21:33.476Z,88.07
2019-05-18T01:23:26.386Z,88.21
2019-05-18T01:24:26.395Z,88.17
2019-05-18T01:26:19.302Z,87.98
2019-05-18T01:27:19.303Z,88.02
2019-05-18T01:29:12.213Z,88.31
2019-05-18T01:30:12.221Z,88.59
2019-05-18T01:32:05.131Z,88.17
2019-05-18T01:33:05.136Z,87.98
2019-05-18T01:34:58.041Z,88.07
2019-05-18T01:35:58.052Z,88.26
2019-05-18T01:37:50.963Z,88.17
2019-05-18T01:38:50.965Z,88.17
2019-05-18T01:40:43.872Z,88.17
2019-05-18T01:41:43.883Z,88.07
2019-05-18T01:43:36.789Z,88.64
2019-05-18T01:44:36.792Z,89.12
2019-05-18T01:46:29.705Z,89.40
2019-05-18T01:47:29.706Z,88.84
2019-05-18T01:49:22.613Z,89.79
2019-05-18T01:50:22.620Z,89.60
2019-05-18T01:52:16.024Z,89.31
2019-05-18T01:53:16.030Z,89.79
2019-05-18T01:55:08.937Z,89.79
2019-05-18T01:56:08.945Z,89.40
2019-05-18T01:58:01.860Z,89.60
2019-05-18T01:59:01.858Z,90.36
2019-05-18T02:00:55.258Z,90.36
2019-05-18T02:01:55.268Z,90.17
2019-05-18T02:03:48.179Z,90.17
2019-05-18T02:04:48.181Z,90.17
2019-05-18T02:06:41.091Z,89.79
2019-05-18T02:07:41.095Z,89.98
2019-05-18T02:09:34.005Z,89.89
2019-05-18T02:10:34.013Z,89.98
2019-05-18T02:12:26.930Z,89.89
2019-05-18T02:13:26.931Z,89.50
2019-05-18T02:15:19.831Z,89.79
2019-05-18T02:16:19.840Z,89.60
2019-05-18T02:18:14.160Z,89.22
2019-05-18T02:19:12.756Z,89.03
2019-05-18T02:21:05.663Z,89.89
2019-05-18T02:22:05.667Z,89.60
2019-05-18T02:23:58.575Z,88.93
2019-05-18T02:24:58.580Z,89.31
2019-05-18T02:26:51.984Z,89.50
2019-05-18T02:27:51.989Z,89.50
2019-05-18T02:29:44.894Z,89.69
2019-05-18T02:30:44.902Z,89.50
2019-05-18T02:32:37.813Z,89.60
2019-05-18T02:33:37.828Z,89.89
2019-05-18T02:35:30.731Z,89.79
2019-05-18T02:36:30.732Z,90.36
2019-05-18T02:38:23.644Z,89.79
2019-05-18T02:39:23.648Z,90.55
2019-05-18T02:41:16.554Z,90.93
2019-05-18T02:42:16.562Z,90.93
2019-05-18T02:44:09.473Z,90.64
2019-05-18T02:45:09.479Z,91.41
2019-05-18T02:47:02.428Z,91.69
2019-05-18T02:48:02.389Z,91.50
2019-05-18T02:49:55.303Z,91.22
2019-05-18T02:50:55.303Z,91.50
2019-05-18T02:52:48.233Z,91.79
2019-05-18T02:53:48.224Z,90.93
2019-05-18T02:55:41.623Z,91.41
2019-05-18T02:56:41.626Z,90.74
2019-05-18T02:58:34.533Z,90.93
2019-05-18T02:59:34.536Z,90.93
2019-05-18T03:01:27.935Z,90.36
2019-05-18T03:02:27.946Z,90.36
2019-05-18T03:04:20.858Z,90.74
2019-05-18T03:05:20.868Z,90.41
2019-05-18T03:07:13.775Z,90.22
2019-05-18T03:08:13.774Z,90.31
2019-05-18T03:10:06.679Z,90.70
2019-05-18T03:11:06.688Z,90.41
2019-05-18T03:12:59.598Z,90.41
2019-05-18T03:13:59.603Z,90.31
2019-05-18T03:15:52.508Z,90.31
2019-05-18T03:16:52.521Z,90.50
2019-05-18T03:18:45.509Z,90.41
2019-05-18T03:19:45.431Z,91.08
2019-05-18T03:21:38.357Z,90.89
2019-05-18T03:22:38.340Z,90.70
2019-05-18T03:24:31.251Z,91.55
2019-05-18T03:25:31.254Z,91.17
2019-05-18T03:27:24.165Z,91.46
2019-05-18T03:28:24.172Z,91.46
2019-05-18T03:30:17.074Z,91.55
2019-05-18T03:31:17.082Z,90.70
2019-05-18T03:33:10.113Z,90.79
2019-05-18T03:34:09.993Z,90.70
2019-05-18T03:36:02.897Z,91.08
2019-05-18T03:37:02.909Z,90.60
2019-05-18T03:38:55.814Z,90.50
2019-05-18T03:39:55.820Z,90.89
2019-05-18T03:41:48.729Z,90.98
2019-05-18T03:42:48.741Z,90.79
2019-05-18T03:44:41.638Z,91.36
2019-05-18T03:45:41.643Z,91.17
2019-05-18T03:47:34.556Z,90.89
2019-05-18T03:48:34.559Z,91.08
2019-05-18T03:50:27.466Z,90.89
2019-05-18T03:51:27.475Z,90.60
2019-05-18T03:53:20.383Z,91.94
2019-05-18T03:54:20.382Z,91.27
2019-05-18T03:56:13.289Z,92.17
2019-05-18T03:57:13.298Z,92.08
2019-05-18T03:59:06.222Z,92.22
2019-05-18T04:00:06.217Z,92.32
2019-05-18T04:01:59.121Z,91.60
2019-05-18T04:02:59.129Z,91.02
2019-05-18T04:04:52.030Z,89.88
2019-05-18T04:05:52.039Z,88.45
2019-05-18T04:07:44.952Z,87.30
2019-05-18T04:08:44.953Z,86.44
2019-05-18T04:10:37.862Z,85.97
2019-05-18T04:11:37.878Z,84.92
2019-05-18T04:13:30.772Z,84.44
2019-05-18T04:14:30.782Z,85.30
2019-05-18T04:16:23.699Z,85.63
2019-05-18T04:17:23.792Z,84.77
2019-05-18T04:19:16.602Z,84.14
2019-05-18T04:20:16.609Z,83.47
2019-05-18T04:22:09.532Z,81.79
2019-05-18T04:23:09.530Z,80.46
2019-05-18T04:25:02.436Z,78.68
2019-05-18T04:26:02.446Z,77.67
2019-05-18T04:27:55.376Z,76.71
2019-05-18T04:28:55.364Z,75.22
2019-05-18T04:30:48.272Z,74.58
2019-05-18T04:31:48.316Z,73.24
2019-05-18T04:33:41.201Z,71.17
2019-05-18T04:34:41.305Z,70.31
2019-05-18T04:36:34.117Z,69.10
2019-05-18T04:37:34.127Z,68.43
2019-05-18T04:39:27.039Z,67.22
2019-05-18T04:40:27.045Z,66.96
2019-05-18T04:42:19.969Z,65.81
2019-05-18T04:43:19.972Z,65.91
2019-05-18T04:45:12.898Z,64.50
2019-05-18T04:46:12.897Z,63.86
2019-05-18T04:48:05.819Z,62.13
2019-05-18T04:49:05.823Z,62.61
2019-05-18T04:50:58.736Z,61.58
2019-05-18T04:51:58.749Z,61.40
2019-05-18T04:53:51.670Z,60.37
2019-05-18T04:54:51.676Z,60.08
2019-05-18T04:56:44.598Z,60.08
2019-05-18T04:57:44.602Z,59.89
2019-05-18T04:59:37.515Z,59.15
2019-05-18T05:00:37.530Z,59.53
2019-05-18T05:02:30.451Z,59.24
2019-05-18T05:03:30.460Z,59.44
2019-05-18T05:05:23.373Z,58.60
2019-05-18T05:06:23.389Z,58.31
2019-05-18T05:08:16.310Z,57.92
2019-05-18T05:09:16.319Z,57.64
2019-05-18T05:11:09.251Z,56.51
2019-05-18T05:12:09.248Z,56.60
2019-05-18T05:14:02.723Z,55.07
2019-05-18T05:15:02.678Z,55.74
2019-05-18T05:16:55.601Z,56.51
2019-05-18T05:17:55.611Z,56.03
2019-05-18T05:19:48.526Z,56.67
2019-05-18T05:20:48.541Z,56.77
2019-05-18T05:22:41.476Z,57.15
2019-05-18T05:23:41.475Z,56.87
2019-05-18T05:25:34.394Z,56.87
2019-05-18T05:26:34.410Z,57.51
2019-05-18T05:28:27.345Z,58.92
2019-05-18T05:29:27.359Z,59.31
2019-05-18T05:31:20.767Z,59.60
2019-05-18T05:32:20.788Z,60.14
2019-05-18T05:34:13.721Z,61.40
2019-05-18T05:35:13.721Z,61.84
2019-05-18T05:37:06.643Z,63.38
2019-05-18T05:38:06.654Z,62.55
2019-05-18T05:39:59.581Z,62.35
2019-05-18T05:40:59.607Z,62.00
2019-05-18T05:42:52.511Z,61.71
2019-05-18T05:43:52.521Z,61.52
2019-05-18T05:45:45.437Z,60.49
2019-05-18T05:46:45.454Z,60.21
2019-05-18T05:48:38.379Z,60.49
2019-05-18T05:49:38.394Z,59.94
2019-05-18T05:51:31.309Z,58.89
2019-05-18T05:52:31.327Z,58.92
2019-05-18T05:54:24.255Z,58.27
2019-05-18T05:55:24.271Z,57.72
2019-05-18T05:57:17.192Z,55.73
2019-05-18T05:58:17.299Z,54.79
2019-05-18T06:00:10.141Z,53.73
2019-05-18T06:01:10.147Z,53.25
2019-05-18T06:03:03.074Z,53.05
2019-05-18T06:04:03.089Z,52.59
2019-05-18T06:05:56.018Z,52.93
2019-05-18T06:06:56.039Z,53.80
2019-05-18T06:08:48.965Z,54.28
2019-05-18T06:09:48.979Z,54.76
2019-05-18T06:11:41.907Z,54.09
2019-05-18T06:12:41.919Z,54.18
2019-05-18T06:14:34.848Z,53.05
2019-05-18T06:15:34.904Z,53.73
2019-05-18T06:17:27.788Z,53.34
2019-05-18T06:18:27.810Z,53.83
2019-05-18T06:20:20.749Z,53.27
2019-05-18T06:21:20.763Z,53.08
2019-05-18T06:23:13.686Z,52.98
2019-05-18T06:24:13.701Z,53.11
2019-05-18T06:26:06.639Z,52.33
2019-05-18T06:27:06.672Z,51.87
2019-05-18T06:28:59.575Z,51.20
2019-05-18T06:29:59.590Z,50.71
2019-05-18T06:31:52.517Z,50.59
2019-05-18T06:32:52.546Z,51.17
2019-05-18T06:34:45.475Z,52.43
2019-05-18T06:35:45.492Z,53.08
2019-05-18T06:37:38.419Z,52.14
2019-05-18T06:38:38.441Z,52.14
2019-05-18T06:40:31.371Z,53.37
2019-05-18T06:41:31.384Z,52.67
2019-05-18T06:43:24.339Z,53.44
2019-05-18T06:44:24.343Z,54.31
2019-05-18T06:46:17.265Z,54.79
2019-05-18T06:47:17.286Z,54.11
2019-05-18T06:49:10.230Z,53.63
2019-05-18T06:50:12.235Z,53.15
2019-05-18T06:52:03.169Z,54.02
2019-05-18T06:53:03.214Z,53.92
2019-05-18T06:54:56.125Z,54.21
2019-05-18T06:55:56.141Z,54.98
2019-05-18T06:57:49.567Z,53.75
2019-05-18T06:58:49.586Z,53.47
2019-05-18T07:00:42.524Z,53.37
2019-05-18T07:01:42.545Z,53.85
2019-05-18T07:03:35.471Z,53.95
2019-05-18T07:04:35.494Z,54.07
2019-05-18T07:06:28.426Z,53.30
2019-05-18T07:07:28.439Z,53.20
2019-05-18T07:09:22.194Z,52.72
2019-05-18T07:10:21.894Z,52.14
2019-05-18T07:12:14.829Z,52.11
2019-05-18T07:13:14.856Z,52.79
2019-05-18T07:15:07.788Z,53.92
2019-05-18T07:16:07.807Z,54.11
2019-05-18T07:18:00.897Z,55.36
2019-05-18T07:19:00.790Z,56.14
2019-05-18T07:20:53.727Z,54.11
2019-05-18T07:21:53.743Z,53.83
2019-05-18T07:23:46.669Z,53.89
2019-05-18T07:24:46.689Z,55.05
2019-05-18T07:26:39.637Z,55.05
2019-05-18T07:27:39.652Z,56.01
2019-05-18T07:29:32.583Z,55.99
2019-05-18T07:30:32.592Z,55.70
2019-05-18T07:32:25.526Z,56.09
2019-05-18T07:33:25.548Z,56.63
2019-05-18T07:35:18.479Z,57.98
2019-05-18T07:36:18.497Z,57.21
2019-05-18T07:38:11.441Z,59.81
2019-05-18T07:39:11.443Z,58.47
2019-05-18T07:41:04.354Z,57.53
2019-05-18T07:42:04.369Z,57.92
2019-05-18T07:43:57.305Z,57.72
2019-05-18T07:44:57.363Z,57.72
2019-05-18T07:46:50.255Z,57.82
2019-05-18T07:47:50.273Z,57.62
2019-05-18T07:49:43.192Z,57.12
2019-05-18T07:50:43.209Z,57.12
2019-05-18T07:52:36.128Z,57.98
2019-05-18T07:53:36.139Z,58.11
2019-05-18T07:55:29.067Z,58.59
2019-05-18T07:56:29.076Z,57.62
2019-05-18T07:58:22.030Z,56.95
2019-05-18T07:59:22.014Z,55.89
2019-05-18T08:01:14.961Z,57.62
2019-05-18T08:02:14.952Z,56.09
2019-05-18T08:04:07.872Z,56.09
2019-05-18T08:05:07.889Z,55.89
2019-05-18T08:07:00.830Z,54.54
2019-05-18T08:08:00.824Z,55.05
2019-05-18T08:09:53.747Z,55.05
2019-05-18T08:10:53.761Z,55.05
2019-05-18T08:12:46.692Z,56.30
2019-05-18T08:13:46.702Z,55.05
2019-05-18T08:15:39.632Z,55.54
2019-05-18T08:16:39.642Z,55.92
2019-05-18T08:18:32.566Z,55.73
2019-05-18T08:19:32.581Z,55.54
2019-05-18T08:21:25.505Z,56.40
2019-05-18T08:22:25.517Z,56.40
2019-05-18T08:24:18.437Z,55.60
2019-05-18T08:25:18.454Z,56.21
2019-05-18T08:27:11.380Z,56.98
2019-05-18T08:28:11.399Z,57.10
2019-05-18T08:30:04.313Z,56.52
2019-05-18T08:31:04.331Z,56.14
2019-05-18T08:32:57.256Z,53.73
2019-05-18T08:33:57.267Z,53.83
2019-05-18T08:35:50.196Z,54.57
2019-05-18T08:36:50.208Z,54.88
2019-05-18T08:38:43.131Z,55.05
2019-05-18T08:39:43.149Z,55.15
2019-05-18T08:41:36.073Z,55.05
2019-05-18T08:42:36.084Z,54.60
2019-05-18T08:44:29.005Z,54.57
2019-05-18T08:45:29.024Z,55.15
2019-05-18T08:47:22.099Z,55.34
2019-05-18T08:48:22.110Z,56.30
2019-05-18T08:50:15.034Z,55.05
2019-05-18T08:51:15.050Z,55.92
2019-05-18T08:53:07.984Z,56.01
2019-05-18T08:54:07.991Z,54.96
2019-05-18T08:56:00.918Z,54.86
2019-05-18T08:57:00.965Z,55.56
2019-05-18T08:58:53.849Z,55.85
2019-05-18T08:59:53.870Z,54.11
2019-05-18T09:01:46.796Z,54.40
2019-05-18T09:02:46.804Z,53.83
2019-05-18T09:04:39.724Z,53.85
2019-05-18T09:05:39.740Z,54.14
2019-05-18T09:07:32.669Z,53.17
2019-05-18T09:08:32.684Z,52.21
2019-05-18T09:10:25.600Z,54.14
2019-05-18T09:11:25.621Z,56.77
2019-05-18T09:13:18.756Z,54.07
2019-05-18T09:14:18.562Z,53.42
2019-05-18T09:16:11.481Z,52.04
2019-05-18T09:17:11.496Z,53.20
2019-05-18T09:19:04.427Z,56.77
2019-05-18T09:20:04.435Z,56.13
2019-05-18T09:21:57.370Z,54.87
2019-05-18T09:22:57.382Z,55.09
2019-05-18T09:24:50.305Z,53.35
2019-05-18T09:25:50.322Z,55.21
2019-05-18T09:27:43.249Z,50.38
2019-05-18T09:28:43.263Z,49.60
2019-05-18T09:30:36.185Z,50.18
2019-05-18T09:31:36.211Z,50.76
2019-05-18T09:33:29.134Z,50.60
2019-05-18T09:34:29.147Z,49.24
2019-05-18T09:36:22.078Z,47.79
2019-05-18T09:37:22.084Z,48.08
2019-05-18T09:39:15.014Z,49.44
2019-05-18T09:40:15.035Z,50.02
2019-05-18T09:42:07.960Z,48.95
2019-05-18T09:43:07.972Z,50.31
2019-05-18T09:45:00.897Z,51.56
2019-05-18T09:46:00.912Z,48.08
2019-05-18T09:47:53.841Z,48.86
2019-05-18T09:48:53.853Z,49.32
2019-05-18T09:50:46.808Z,48.86
2019-05-18T09:51:46.796Z,48.66
2019-05-18T09:53:50.738Z,49.63
2019-05-18T09:54:39.738Z,50.31
2019-05-18T09:56:32.664Z,47.79
2019-05-18T09:57:32.677Z,47.60
2019-05-18T09:59:25.611Z,49.73
2019-05-18T10:00:25.621Z,47.11
2019-05-18T10:02:18.549Z,50.02
2019-05-18T10:03:18.565Z,48.86
2019-05-18T10:05:11.524Z,46.53
2019-05-18T10:06:11.551Z,47.79
2019-05-18T10:08:04.436Z,46.25
2019-05-18T10:09:04.450Z,46.05
2019-05-18T10:10:57.371Z,47.11
2019-05-18T10:11:57.389Z,47.50
2019-05-18T10:13:50.321Z,45.08
2019-05-18T10:14:50.345Z,47.02
2019-05-18T10:16:43.260Z,47.11
2019-05-18T10:17:43.272Z,44.98
2019-05-18T10:19:36.196Z,44.98
2019-05-18T10:20:36.215Z,44.79
2019-05-18T10:22:29.167Z,44.02
2019-05-18T10:23:29.169Z,43.24
2019-05-18T10:25:22.077Z,43.71
2019-05-18T10:26:22.095Z,43.80
2019-05-18T10:28:15.023Z,44.56
2019-05-18T10:29:15.036Z,45.33
2019-05-18T10:31:07.964Z,45.14
2019-05-18T10:32:07.986Z,45.25
2019-05-18T10:34:00.922Z,45.25
2019-05-18T10:35:00.922Z,44.46
2019-05-18T10:36:54.411Z,45.04
2019-05-18T10:37:54.359Z,46.80
2019-05-18T10:39:47.295Z,46.22
2019-05-18T10:40:47.302Z,45.54
2019-05-18T10:42:40.348Z,44.48
2019-05-18T10:43:40.285Z,45.08
2019-05-18T10:45:33.167Z,44.48
2019-05-18T10:46:33.186Z,44.67
2019-05-18T10:48:26.117Z,48.66
2019-05-18T10:49:26.126Z,45.76
2019-05-18T10:51:19.054Z,45.88
2019-05-18T10:52:19.080Z,44.53
2019-05-18T10:54:12.007Z,44.84
2019-05-18T10:55:12.018Z,43.96
2019-05-18T10:57:04.951Z,41.95
2019-05-18T10:58:04.963Z,42.34
2019-05-18T10:59:57.891Z,44.01
2019-05-18T11:00:57.907Z,42.55
2019-05-18T11:02:50.841Z,43.52
2019-05-18T11:03:50.851Z,41.88
2019-05-18T11:05:43.778Z,40.13
2019-05-18T11:06:43.804Z,40.23
2019-05-18T11:08:38.503Z,41.12
2019-05-18T11:09:36.742Z,39.67
2019-05-18T11:11:29.673Z,40.44
2019-05-18T11:12:29.691Z,40.03
2019-05-18T11:14:23.123Z,40.42
2019-05-18T11:15:23.163Z,39.55
2019-05-18T11:17:16.127Z,41.68
2019-05-18T11:18:16.117Z,40.73
2019-05-18T11:20:09.008Z,39.26
2019-05-18T11:21:09.025Z,38.29
2019-05-18T11:23:01.964Z,39.45
2019-05-18T11:24:01.979Z,38.48
2019-05-18T11:25:54.906Z,38.96
2019-05-18T11:26:54.924Z,39.06
2019-05-18T11:28:47.857Z,39.26
2019-05-18T11:29:47.873Z,41.30
2019-05-18T11:31:40.797Z,39.74
2019-05-18T11:32:40.871Z,37.82
2019-05-18T11:34:33.824Z,39.76
2019-05-18T11:35:33.763Z,39.08
2019-05-18T11:37:26.699Z,40.08
2019-05-18T11:38:26.714Z,39.49
2019-05-18T11:40:19.646Z,40.08
2019-05-18T11:41:19.664Z,36.29
2019-05-18T11:43:12.606Z,36.68
2019-05-18T11:44:12.621Z,36.68
2019-05-18T11:46:06.544Z,35.43
2019-05-18T11:47:06.562Z,34.54
2019-05-18T11:48:59.990Z,38.06
2019-05-18T11:50:00.011Z,39.80
2019-05-18T11:51:52.935Z,40.41
2019-05-18T11:52:52.960Z,39.04
2019-05-18T11:54:45.921Z,34.87
2019-05-18T11:55:45.938Z,34.77
2019-05-18T11:57:38.872Z,34.67
2019-05-18T11:58:38.884Z,35.53
2019-05-18T12:00:31.811Z,36.30
2019-05-18T12:01:31.833Z,36.21
2019-05-18T12:03:24.767Z,35.43
2019-05-18T12:04:24.784Z,35.61
2019-05-18T12:06:17.708Z,36.40
2019-05-18T12:07:17.736Z,35.43
2019-05-18T12:09:10.661Z,36.38
2019-05-18T12:10:10.678Z,36.08
2019-05-18T12:12:04.099Z,38.70
2019-05-18T12:13:04.123Z,37.81
2019-05-18T12:14:57.055Z,38.56
2019-05-18T12:15:57.065Z,37.79
2019-05-18T12:17:49.999Z,38.07
2019-05-18T12:18:50.013Z,38.35
2019-05-18T12:20:43.462Z,37.77
2019-05-18T12:21:43.463Z,37.57
2019-05-18T12:23:36.391Z,38.25
2019-05-18T12:24:36.492Z,39.12
2019-05-18T12:26:29.896Z,39.32
2019-05-18T12:27:29.347Z,38.93
2019-05-18T12:29:22.278Z,39.61
2019-05-18T12:30:22.329Z,40.48
2019-05-18T12:32:15.275Z,38.54
2019-05-18T12:33:15.298Z,38.35
2019-05-18T12:35:08.222Z,38.83
2019-05-18T12:36:08.237Z,39.03
2019-05-18T12:38:01.196Z,40.19
2019-05-18T12:39:01.183Z,37.96
2019-05-18T12:40:54.604Z,38.35
2019-05-18T12:41:54.623Z,37.87
2019-05-18T12:43:47.555Z,37.19
2019-05-18T12:44:47.565Z,37.09
2019-05-18T12:46:40.492Z,37.57
2019-05-18T12:47:40.511Z,38.45
2019-05-18T12:49:33.441Z,37.98
2019-05-18T12:50:33.454Z,36.82
2019-05-18T12:52:26.382Z,37.01
2019-05-18T12:53:26.398Z,37.21
2019-05-18T12:55:19.833Z,37.69
2019-05-18T12:56:19.837Z,37.88
2019-05-18T12:58:13.266Z,37.11
2019-05-18T12:59:13.275Z,37.59
2019-05-18T13:01:06.207Z,37.11
2019-05-18T13:02:06.222Z,36.52
2019-05-18T13:03:59.151Z,37.01
2019-05-18T13:04:59.164Z,37.79
2019-05-18T13:06:52.089Z,37.21
2019-05-18T13:07:52.106Z,37.51
2019-05-18T13:09:45.044Z,36.06
2019-05-18T13:10:45.056Z,35.77
2019-05-18T13:12:38.476Z,37.34
2019-05-18T13:13:38.498Z,37.74
2019-05-18T13:15:32.426Z,37.94
2019-05-18T13:16:32.441Z,36.58
2019-05-18T13:18:26.869Z,34.83
2019-05-18T13:19:26.884Z,35.92
2019-05-18T13:21:19.822Z,37.96
2019-05-18T13:22:19.832Z,37.59
2019-05-18T13:24:12.771Z,33.99
2019-05-18T13:25:12.788Z,34.09
2019-05-18T13:27:05.717Z,36.05
2019-05-18T13:28:05.732Z,36.54
2019-05-18T13:29:58.665Z,34.69
2019-05-18T13:30:58.683Z,33.62
2019-05-18T13:32:51.617Z,32.73
2019-05-18T13:33:51.651Z,33.72
2019-05-18T13:35:45.705Z,36.91
2019-05-18T13:36:45.085Z,35.84
2019-05-18T13:38:38.018Z,35.43
2019-05-18T13:39:38.032Z,34.75
2019-05-18T13:41:30.982Z,35.63
2019-05-18T13:42:30.987Z,37.37
2019-05-18T13:44:23.918Z,35.92
2019-05-18T13:45:23.943Z,36.30
2019-05-18T13:47:16.869Z,35.72
2019-05-18T13:48:16.884Z,36.30
2019-05-18T13:50:09.817Z,36.10
2019-05-18T13:51:09.837Z,36.10
2019-05-18T13:53:03.286Z,36.77
2019-05-18T13:54:03.287Z,38.02
2019-05-18T13:55:56.709Z,37.24
2019-05-18T13:56:56.731Z,36.76
2019-05-18T13:58:49.666Z,36.46
2019-05-18T13:59:49.684Z,36.95
2019-05-18T14:01:42.611Z,38.02
2019-05-18T14:02:42.633Z,37.82
2019-05-18T14:04:35.565Z,36.66
2019-05-18T14:05:35.586Z,36.85
2019-05-18T14:07:28.515Z,35.78
2019-05-18T14:08:28.529Z,36.85
2019-05-18T14:10:21.463Z,37.43
2019-05-18T14:11:21.481Z,37.05
2019-05-18T14:13:15.407Z,37.03
2019-05-18T14:14:15.422Z,36.93
2019-05-18T14:16:08.348Z,36.06
2019-05-18T14:17:08.368Z,36.35
2019-05-18T14:19:01.300Z,37.51
2019-05-18T14:20:01.314Z,37.63
2019-05-18T14:21:54.735Z,35.98
2019-05-18T14:22:54.756Z,35.78
2019-05-18T14:24:47.693Z,35.78
2019-05-18T14:25:47.701Z,35.88
2019-05-18T14:27:40.633Z,35.98
2019-05-18T14:28:40.650Z,36.18
2019-05-18T14:30:33.581Z,36.16
2019-05-18T14:31:33.600Z,36.93
2019-05-18T14:33:26.547Z,35.96
2019-05-18T14:34:26.545Z,36.06
2019-05-18T14:36:19.469Z,35.86
2019-05-18T14:37:19.488Z,36.44
2019-05-18T14:39:12.429Z,36.64
2019-05-18T14:40:12.435Z,35.77
2019-05-18T14:42:05.360Z,35.67
2019-05-18T14:43:05.386Z,35.77
2019-05-18T14:44:58.316Z,35.88
2019-05-18T14:45:58.329Z,36.66
2019-05-18T14:47:51.753Z,35.69
2019-05-18T14:48:51.770Z,35.78
2019-05-18T14:50:44.787Z,35.40
2019-05-18T14:51:44.718Z,35.59
2019-05-18T14:53:38.146Z,35.40
2019-05-18T14:54:38.160Z,34.72
2019-05-18T14:56:31.085Z,33.96
2019-05-18T14:57:31.112Z,34.33
2019-05-18T14:59:24.039Z,33.86
2019-05-18T15:00:24.071Z,34.25
2019-05-18T15:02:16.978Z,36.00
2019-05-18T15:03:17.022Z,36.48
2019-05-18T15:05:09.930Z,36.46
2019-05-18T15:06:09.946Z,37.05
2019-05-18T15:08:02.875Z,36.27
2019-05-18T15:09:02.894Z,35.49
2019-05-18T15:10:55.830Z,36.25
2019-05-18T15:11:55.841Z,35.57
2019-05-18T15:13:49.278Z,36.54
2019-05-18T15:14:49.290Z,36.16
2019-05-18T15:16:42.718Z,36.16
2019-05-18T15:17:42.734Z,35.77
2019-05-18T15:19:35.669Z,36.64
2019-05-18T15:20:35.706Z,36.64
2019-05-18T15:22:28.618Z,37.71
2019-05-18T15:23:28.638Z,38.09
2019-05-18T15:25:21.576Z,37.32
2019-05-18T15:26:21.591Z,37.41
2019-05-18T15:28:14.514Z,37.41
2019-05-18T15:29:14.537Z,37.81
2019-05-18T15:31:07.463Z,37.03
2019-05-18T15:32:07.480Z,37.13
2019-05-18T15:34:00.416Z,37.61
2019-05-18T15:35:00.426Z,38.00
2019-05-18T15:36:53.357Z,37.41
2019-05-18T15:37:53.373Z,37.81
2019-05-18T15:39:46.306Z,37.51
2019-05-18T15:40:46.320Z,37.13
2019-05-18T15:42:39.241Z,37.32
2019-05-18T15:43:39.267Z,37.13
2019-05-18T15:45:32.194Z,36.54
2019-05-18T15:46:32.207Z,36.74
2019-05-18T15:48:25.230Z,36.64
2019-05-18T15:49:25.153Z,36.16
2019-05-18T15:51:18.081Z,35.86
2019-05-18T15:52:18.096Z,36.25
2019-05-18T15:54:11.028Z,36.16
2019-05-18T15:55:11.057Z,36.64
2019-05-18T15:57:03.969Z,36.95
2019-05-18T15:58:04.001Z,35.96
2019-05-18T15:59:56.921Z,36.25
2019-05-18T16:00:56.934Z,36.64
2019-05-18T16:02:49.892Z,36.44
2019-05-18T16:03:49.881Z,36.25
2019-05-18T16:05:42.810Z,35.77
2019-05-18T16:06:42.824Z,35.67
2019-05-18T16:08:35.753Z,36.83
2019-05-18T16:09:35.769Z,37.21
2019-05-18T16:11:28.700Z,36.14
2019-05-18T16:12:28.726Z,36.43
2019-05-18T16:14:21.645Z,36.82
2019-05-18T16:15:21.660Z,37.40
2019-05-18T16:17:15.080Z,37.59
2019-05-18T16:18:15.099Z,36.72
2019-05-18T16:20:08.526Z,36.62
2019-05-18T16:21:08.535Z,36.62
2019-05-18T16:23:01.470Z,37.11
2019-05-18T16:24:01.485Z,36.91
2019-05-18T16:25:54.416Z,37.09
2019-05-18T16:26:54.430Z,36.80
2019-05-18T16:28:47.355Z,36.70
2019-05-18T16:29:47.375Z,36.51
2019-05-18T16:31:40.306Z,36.32
2019-05-18T16:32:40.330Z,36.12
2019-05-18T16:34:33.259Z,36.12
2019-05-18T16:35:33.267Z,36.33
2019-05-18T16:37:26.192Z,36.24
2019-05-18T16:38:26.210Z,36.43
2019-05-18T16:40:19.139Z,36.32
2019-05-18T16:41:19.152Z,36.90
2019-05-18T16:43:12.075Z,36.99
2019-05-18T16:44:12.098Z,36.99
2019-05-18T16:46:05.523Z,37.87
2019-05-18T16:47:05.532Z,38.76
2019-05-18T16:48:58.455Z,38.25
2019-05-18T16:49:58.475Z,38.17
2019-05-18T16:51:51.477Z,38.64
2019-05-18T16:52:51.422Z,38.83
2019-05-18T16:54:44.350Z,39.12
2019-05-18T16:55:44.507Z,39.41
2019-05-18T16:57:37.283Z,40.58
2019-05-18T16:58:37.321Z,39.24
2019-05-18T17:00:30.760Z,39.51
2019-05-18T17:01:30.739Z,39.14
2019-05-18T17:03:23.663Z,39.03
2019-05-18T17:04:23.681Z,37.67
2019-05-18T17:06:16.673Z,37.77
2019-05-18T17:07:16.622Z,38.45
2019-05-18T17:09:10.042Z,38.25
2019-05-18T17:10:10.106Z,38.15
2019-05-18T17:12:03.013Z,38.25
2019-05-18T17:13:03.004Z,38.15
2019-05-18T17:14:55.928Z,38.25
2019-05-18T17:15:55.941Z,38.45
2019-05-18T17:17:48.866Z,39.22
2019-05-18T17:18:48.885Z,38.83
2019-05-18T17:20:41.812Z,39.12
2019-05-18T17:21:41.825Z,39.61
2019-05-18T17:23:34.746Z,40.67
2019-05-18T17:24:34.766Z,40.96
2019-05-18T17:26:27.693Z,40.28
2019-05-18T17:27:27.706Z,40.77
2019-05-18T17:29:21.131Z,41.82
2019-05-18T17:30:21.143Z,41.62
2019-05-18T17:32:14.072Z,42.03
2019-05-18T17:33:14.085Z,42.59
2019-05-18T17:35:07.020Z,41.74
2019-05-18T17:36:07.028Z,41.33
2019-05-18T17:37:59.953Z,40.77
2019-05-18T17:38:59.975Z,40.84
2019-05-18T17:40:53.400Z,41.42
2019-05-18T17:41:53.410Z,41.33
2019-05-18T17:43:46.334Z,41.33
2019-05-18T17:44:46.355Z,41.82
2019-05-18T17:46:40.287Z,40.84
2019-05-18T17:47:40.312Z,41.24
2019-05-18T17:49:33.237Z,41.45
2019-05-18T17:50:33.245Z,41.42
2019-05-18T17:52:26.176Z,41.55
2019-05-18T17:53:26.191Z,41.74
2019-05-18T17:55:19.126Z,40.50
2019-05-18T17:56:19.139Z,40.50
2019-05-18T17:58:12.064Z,39.65
2019-05-18T17:59:12.083Z,39.62
2019-05-18T18:01:05.019Z,39.53
2019-05-18T18:02:05.031Z,39.62
2019-05-18T18:03:57.957Z,40.59
2019-05-18T18:04:57.977Z,39.92
2019-05-18T18:06:50.906Z,40.01
2019-05-18T18:07:50.920Z,39.53
2019-05-18T18:09:43.853Z,39.61
2019-05-18T18:10:43.865Z,39.70
2019-05-18T18:12:36.851Z,39.41
2019-05-18T18:13:36.823Z,39.51
2019-05-18T18:15:29.744Z,39.80
2019-05-18T18:16:29.757Z,40.38
2019-05-18T18:18:22.685Z,40.38
2019-05-18T18:19:22.703Z,40.58
2019-05-18T18:21:15.637Z,40.28
2019-05-18T18:22:15.657Z,40.28
2019-05-18T18:24:08.586Z,40.28
2019-05-18T18:25:08.591Z,41.25
2019-05-18T18:27:01.523Z,41.25
2019-05-18T18:28:01.540Z,41.93
2019-05-18T18:29:54.467Z,40.94
2019-05-18T18:30:54.480Z,41.82
2019-05-18T18:32:47.407Z,41.89
2019-05-18T18:33:47.424Z,42.08